sensor_id;sensor_type;location;lat;lon;timestamp;P1;durP1;ratioP1;P2;durP2;ratioP2
75356;SDS011;63946;51.986;5.930;2023-07-13T03:45:02;6.90;;;2.53;;
75356;SDS011;63946;51.986;5.930;2023-07-13T03:47:47;6.70;;;2.83;;
75356;SDS011;63946;51.986;5.930;2023-07-13T03:50:17;3.75;;;2.63;;
75356;SDS011;63946;51.986;5.930;2023-07-13T03:52:46;5.80;;;2.38;;
75356;SDS011;63946;51.986;5.930;2023-07-13T03:55:15;4.65;;;2.90;;
75356;SDS011;63946;51.986;5.930;2023-07-13T03:57:45;4.70;;;2.67;;
75356;SDS011;63946;51.986;5.930;2023-07-13T04:00:14;6.40;;;3.38;;
75356;SDS011;63946;51.986;5.930;2023-07-13T04:02:43;7.90;;;3.10;;
75356;SDS011;63946;51.986;5.930;2023-07-13T04:05:15;7.00;;;2.90;;
75356;SDS011;63946;51.986;5.930;2023-07-13T04:10:14;6.80;;;3.13;;
75356;SDS011;63946;51.986;5.930;2023-07-13T04:12:43;3.97;;;2.22;;
75356;SDS011;63946;51.986;5.930;2023-07-13T04:15:12;7.53;;;2.88;;
75356;SDS011;63946;51.986;5.930;2023-07-13T04:17:40;7.68;;;2.78;;
75356;SDS011;63946;51.986;5.930;2023-07-13T04:20:09;6.78;;;2.67;;
75356;SDS011;63946;51.986;5.930;2023-07-13T04:22:38;7.50;;;4.05;;
75356;SDS011;63946;51.986;5.930;2023-07-13T04:25:07;6.60;;;2.92;;
75356;SDS011;63946;51.986;5.930;2023-07-13T04:27:36;8.25;;;3.55;;
75356;SDS011;63946;51.986;5.930;2023-07-13T04:30:06;9.38;;;2.97;;
75356;SDS011;63946;51.986;5.930;2023-07-13T04:32:36;9.00;;;3.40;;
75356;SDS011;63946;51.986;5.930;2023-07-13T04:35:05;7.75;;;2.83;;
75356;SDS011;63946;51.986;5.930;2023-07-13T04:37:35;8.18;;;3.45;;
75356;SDS011;63946;51.986;5.930;2023-07-13T04:40:04;9.65;;;4.07;;
75356;SDS011;63946;51.986;5.930;2023-07-13T04:42:41;8.48;;;3.75;;
75356;SDS011;63946;51.986;5.930;2023-07-13T04:45:10;6.78;;;3.15;;
75356;SDS011;63946;51.986;5.930;2023-07-13T04:47:39;7.45;;;3.28;;
75356;SDS011;63946;51.986;5.930;2023-07-13T04:50:09;8.73;;;3.22;;
75356;SDS011;63946;51.986;5.930;2023-07-13T04:52:41;9.20;;;3.67;;
75356;SDS011;63946;51.986;5.930;2023-07-13T04:55:10;11.25;;;3.97;;
75356;SDS011;63946;51.986;5.930;2023-07-13T04:57:39;7.57;;;3.25;;
75356;SDS011;63946;51.986;5.930;2023-07-13T05:00:11;6.65;;;3.35;;
75356;SDS011;63946;51.986;5.930;2023-07-13T05:02:43;8.05;;;3.33;;
75356;SDS011;63946;51.986;5.930;2023-07-13T05:05:13;8.50;;;3.60;;
75356;SDS011;63946;51.986;5.930;2023-07-13T05:07:42;9.15;;;3.40;;
75356;SDS011;63946;51.986;5.930;2023-07-13T05:10:11;10.57;;;3.83;;
75356;SDS011;63946;51.986;5.930;2023-07-13T05:12:40;7.85;;;3.38;;
75356;SDS011;63946;51.986;5.930;2023-07-13T05:15:09;7.10;;;4.03;;
75356;SDS011;63946;51.986;5.930;2023-07-13T05:17:38;6.70;;;3.60;;
75356;SDS011;63946;51.986;5.930;2023-07-13T05:20:08;10.20;;;3.53;;
75356;SDS011;63946;51.986;5.930;2023-07-13T05:22:37;8.73;;;4.03;;
75356;SDS011;63946;51.986;5.930;2023-07-13T05:25:06;12.85;;;3.80;;
75356;SDS011;63946;51.986;5.930;2023-07-13T05:27:36;10.02;;;4.32;;
75356;SDS011;63946;51.986;5.930;2023-07-13T05:30:05;10.48;;;4.15;;
75356;SDS011;63946;51.986;5.930;2023-07-13T05:32:36;8.73;;;4.07;;
75356;SDS011;63946;51.986;5.930;2023-07-13T05:35:05;6.88;;;3.50;;
75356;SDS011;63946;51.986;5.930;2023-07-13T05:37:37;11.50;;;3.83;;
75356;SDS011;63946;51.986;5.930;2023-07-13T05:40:06;11.35;;;4.32;;
75356;SDS011;63946;51.986;5.930;2023-07-13T05:42:35;8.38;;;4.30;;
75356;SDS011;63946;51.986;5.930;2023-07-13T05:45:04;15.82;;;5.28;;
75356;SDS011;63946;51.986;5.930;2023-07-13T05:47:33;9.35;;;3.92;;
75356;SDS011;63946;51.986;5.930;2023-07-13T05:50:02;12.75;;;4.18;;
75356;SDS011;63946;51.986;5.930;2023-07-13T05:52:31;10.45;;;5.28;;
75356;SDS011;63946;51.986;5.930;2023-07-13T05:55:00;10.43;;;5.20;;
75356;SDS011;63946;51.986;5.930;2023-07-13T05:57:29;13.57;;;5.55;;
75356;SDS011;63946;51.986;5.930;2023-07-13T05:59:59;16.90;;;6.22;;
75356;SDS011;63946;51.986;5.930;2023-07-13T06:02:37;12.80;;;5.47;;
75356;SDS011;63946;51.986;5.930;2023-07-13T06:05:06;10.20;;;5.10;;
75356;SDS011;63946;51.986;5.930;2023-07-13T06:07:35;14.55;;;7.40;;
75356;SDS011;63946;51.986;5.930;2023-07-13T06:10:04;19.80;;;7.13;;
75356;SDS011;63946;51.986;5.930;2023-07-13T06:12:34;13.90;;;6.05;;
75356;SDS011;63946;51.986;5.930;2023-07-13T06:15:03;15.55;;;7.18;;
75356;SDS011;63946;51.986;5.930;2023-07-13T06:17:32;12.25;;;6.32;;
75356;SDS011;63946;51.986;5.930;2023-07-13T06:20:01;14.55;;;7.15;;
75356;SDS011;63946;51.986;5.930;2023-07-13T06:22:30;13.80;;;7.55;;
75356;SDS011;63946;51.986;5.930;2023-07-13T06:24:59;13.20;;;6.97;;
75356;SDS011;63946;51.986;5.930;2023-07-13T06:27:28;13.68;;;7.25;;
75356;SDS011;63946;51.986;5.930;2023-07-13T06:29:57;18.10;;;9.02;;
75356;SDS011;63946;51.986;5.930;2023-07-13T06:32:26;14.68;;;7.63;;
75356;SDS011;63946;51.986;5.930;2023-07-13T06:34:55;14.75;;;8.48;;
75356;SDS011;63946;51.986;5.930;2023-07-13T06:37:24;20.70;;;9.25;;
75356;SDS011;63946;51.986;5.930;2023-07-13T06:39:52;15.00;;;7.75;;
75356;SDS011;63946;51.986;5.930;2023-07-13T06:42:21;13.85;;;7.20;;
75356;SDS011;63946;51.986;5.930;2023-07-13T06:44:50;15.18;;;6.82;;
75356;SDS011;63946;51.986;5.930;2023-07-13T06:47:19;15.27;;;7.85;;
75356;SDS011;63946;51.986;5.930;2023-07-13T06:49:48;17.48;;;8.75;;
75356;SDS011;63946;51.986;5.930;2023-07-13T06:52:16;13.75;;;6.55;;
75356;SDS011;63946;51.986;5.930;2023-07-13T06:54:45;14.20;;;8.18;;
75356;SDS011;63946;51.986;5.930;2023-07-13T06:57:14;15.43;;;9.07;;
75356;SDS011;63946;51.986;5.930;2023-07-13T06:59:43;14.50;;;8.43;;
75356;SDS011;63946;51.986;5.930;2023-07-13T07:02:12;12.55;;;8.55;;
75356;SDS011;63946;51.986;5.930;2023-07-13T07:04:41;18.52;;;9.45;;
75356;SDS011;63946;51.986;5.930;2023-07-13T07:07:10;17.38;;;10.65;;
75356;SDS011;63946;51.986;5.930;2023-07-13T07:09:38;17.25;;;9.38;;
75356;SDS011;63946;51.986;5.930;2023-07-13T07:12:07;19.20;;;10.20;;
75356;SDS011;63946;51.986;5.930;2023-07-13T07:14:36;20.52;;;9.93;;
75356;SDS011;63946;51.986;5.930;2023-07-13T07:17:05;12.90;;;9.32;;
75356;SDS011;63946;51.986;5.930;2023-07-13T07:19:34;16.30;;;9.02;;
75356;SDS011;63946;51.986;5.930;2023-07-13T07:22:03;16.35;;;9.68;;
75356;SDS011;63946;51.986;5.930;2023-07-13T07:24:32;14.32;;;8.82;;
75356;SDS011;63946;51.986;5.930;2023-07-13T07:27:01;12.88;;;7.88;;
75356;SDS011;63946;51.986;5.930;2023-07-13T07:29:30;18.55;;;8.07;;
75356;SDS011;63946;51.986;5.930;2023-07-13T07:31:59;13.55;;;9.48;;
75356;SDS011;63946;51.986;5.930;2023-07-13T07:34:29;13.48;;;8.23;;
75356;SDS011;63946;51.986;5.930;2023-07-13T07:37:00;15.15;;;9.25;;
75356;SDS011;63946;51.986;5.930;2023-07-13T07:39:29;16.20;;;10.02;;
75356;SDS011;63946;51.986;5.930;2023-07-13T07:41:58;15.68;;;9.15;;
75356;SDS011;63946;51.986;5.930;2023-07-13T07:44:27;13.27;;;8.70;;
75356;SDS011;63946;51.986;5.930;2023-07-13T07:46:56;12.90;;;8.02;;
75356;SDS011;63946;51.986;5.930;2023-07-13T07:49:26;12.70;;;8.73;;
75356;SDS011;63946;51.986;5.930;2023-07-13T07:51:55;20.08;;;9.20;;
75356;SDS011;63946;51.986;5.930;2023-07-13T07:54:23;16.23;;;9.55;;
75356;SDS011;63946;51.986;5.930;2023-07-13T07:56:52;16.02;;;8.45;;
75356;SDS011;63946;51.986;5.930;2023-07-13T07:59:24;15.43;;;9.13;;
75356;SDS011;63946;51.986;5.930;2023-07-13T08:01:52;15.07;;;9.38;;
75356;SDS011;63946;51.986;5.930;2023-07-13T08:04:21;16.13;;;9.55;;
75356;SDS011;63946;51.986;5.930;2023-07-13T08:06:50;16.48;;;9.05;;
75356;SDS011;63946;51.986;5.930;2023-07-13T08:09:19;15.45;;;9.85;;
75356;SDS011;63946;51.986;5.930;2023-07-13T08:11:48;13.85;;;8.98;;
75356;SDS011;63946;51.986;5.930;2023-07-13T08:14:17;13.43;;;9.65;;
75356;SDS011;63946;51.986;5.930;2023-07-13T08:16:46;15.75;;;9.27;;
75356;SDS011;63946;51.986;5.930;2023-07-13T08:19:15;16.52;;;8.80;;
75356;SDS011;63946;51.986;5.930;2023-07-13T08:21:44;12.13;;;8.10;;
75356;SDS011;63946;51.986;5.930;2023-07-13T08:24:14;16.95;;;9.10;;
75356;SDS011;63946;51.986;5.930;2023-07-13T08:26:44;19.17;;;10.65;;
75356;SDS011;63946;51.986;5.930;2023-07-13T08:29:14;14.30;;;9.25;;
75356;SDS011;63946;51.986;5.930;2023-07-13T08:31:42;16.98;;;9.57;;
75356;SDS011;63946;51.986;5.930;2023-07-13T08:34:11;15.65;;;9.60;;
75356;SDS011;63946;51.986;5.930;2023-07-13T08:36:40;13.07;;;8.32;;
75356;SDS011;63946;51.986;5.930;2023-07-13T08:39:09;12.18;;;8.88;;
75356;SDS011;63946;51.986;5.930;2023-07-13T08:41:38;10.63;;;7.00;;
75356;SDS011;63946;51.986;5.930;2023-07-13T08:44:14;10.93;;;6.78;;
75356;SDS011;63946;51.986;5.930;2023-07-13T08:47:07;13.73;;;7.75;;
75356;SDS011;63946;51.986;5.930;2023-07-13T08:49:38;13.15;;;8.82;;
75356;SDS011;63946;51.986;5.930;2023-07-13T08:52:12;14.45;;;8.75;;
75356;SDS011;63946;51.986;5.930;2023-07-13T08:54:45;13.40;;;8.50;;
75356;SDS011;63946;51.986;5.930;2023-07-13T08:57:19;13.68;;;8.60;;
75356;SDS011;63946;51.986;5.930;2023-07-13T08:59:55;13.90;;;9.10;;
75356;SDS011;63946;51.986;5.930;2023-07-13T09:05:04;12.23;;;8.05;;
75356;SDS011;63946;51.986;5.930;2023-07-13T09:07:55;11.80;;;7.70;;
75356;SDS011;63946;51.986;5.930;2023-07-13T09:10:31;18.77;;;10.07;;
75356;SDS011;63946;51.986;5.930;2023-07-13T09:13:41;11.43;;;7.28;;
75356;SDS011;63946;51.986;5.930;2023-07-13T09:16:24;15.60;;;7.20;;
75356;SDS011;63946;51.986;5.930;2023-07-13T09:18:54;9.15;;;5.63;;
75356;SDS011;63946;51.986;5.930;2023-07-13T09:21:32;16.05;;;8.23;;
75356;SDS011;63946;51.986;5.930;2023-07-13T09:27:12;12.02;;;6.60;;
75356;SDS011;63946;51.986;5.930;2023-07-13T09:29:47;8.77;;;5.40;;
75356;SDS011;63946;51.986;5.930;2023-07-13T09:32:23;7.68;;;6.68;;
75356;SDS011;63946;51.986;5.930;2023-07-13T09:34:55;8.38;;;5.78;;
75356;SDS011;63946;51.986;5.930;2023-07-13T09:37:28;7.45;;;6.28;;
75356;SDS011;63946;51.986;5.930;2023-07-13T09:39:59;9.55;;;6.22;;
75356;SDS011;63946;51.986;5.930;2023-07-13T09:42:35;11.95;;;6.40;;
75356;SDS011;63946;51.986;5.930;2023-07-13T09:45:04;8.63;;;5.35;;
75356;SDS011;63946;51.986;5.930;2023-07-13T09:47:39;8.23;;;4.40;;
75356;SDS011;63946;51.986;5.930;2023-07-13T09:50:10;5.18;;;3.10;;
75356;SDS011;63946;51.986;5.930;2023-07-13T09:52:45;5.25;;;2.90;;
75356;SDS011;63946;51.986;5.930;2023-07-13T10:00:43;6.57;;;3.72;;
75356;SDS011;63946;51.986;5.930;2023-07-13T10:03:28;7.70;;;4.28;;
75356;SDS011;63946;51.986;5.930;2023-07-13T10:06:14;6.15;;;4.40;;
75356;SDS011;63946;51.986;5.930;2023-07-13T10:08:45;4.65;;;4.00;;
75356;SDS011;63946;51.986;5.930;2023-07-13T10:11:28;7.95;;;4.00;;
75356;SDS011;63946;51.986;5.930;2023-07-13T10:14:00;6.15;;;3.60;;
75356;SDS011;63946;51.986;5.930;2023-07-13T10:16:32;8.45;;;4.78;;
75356;SDS011;63946;51.986;5.930;2023-07-13T10:19:08;7.97;;;4.53;;
75356;SDS011;63946;51.986;5.930;2023-07-13T10:21:55;6.28;;;3.95;;
75356;SDS011;63946;51.986;5.930;2023-07-13T10:24:27;8.10;;;4.00;;
75356;SDS011;63946;51.986;5.930;2023-07-13T10:29:52;8.63;;;4.70;;
75356;SDS011;63946;51.986;5.930;2023-07-13T10:32:28;8.00;;;4.25;;
75356;SDS011;63946;51.986;5.930;2023-07-13T10:34:57;10.55;;;4.38;;
75356;SDS011;63946;51.986;5.930;2023-07-13T10:37:31;11.45;;;5.43;;
75356;SDS011;63946;51.986;5.930;2023-07-13T10:40:11;8.63;;;4.43;;
75356;SDS011;63946;51.986;5.930;2023-07-13T10:42:44;6.05;;;3.33;;
75356;SDS011;63946;51.986;5.930;2023-07-13T10:45:20;9.32;;;3.70;;
75356;SDS011;63946;51.986;5.930;2023-07-13T10:47:52;6.35;;;3.50;;
75356;SDS011;63946;51.986;5.930;2023-07-13T10:50:24;7.57;;;4.00;;
75356;SDS011;63946;51.986;5.930;2023-07-13T10:53:03;9.82;;;5.20;;
75356;SDS011;63946;51.986;5.930;2023-07-13T11:01:03;8.23;;;5.32;;
75356;SDS011;63946;51.986;5.930;2023-07-13T11:13:59;6.70;;;3.65;;
75356;SDS011;63946;51.986;5.930;2023-07-13T11:16:37;7.07;;;3.85;;
75356;SDS011;63946;51.986;5.930;2023-07-13T11:22:25;5.45;;;3.55;;
75356;SDS011;63946;51.986;5.930;2023-07-13T11:27:41;6.78;;;4.18;;
75356;SDS011;63946;51.986;5.930;2023-07-13T11:36:18;5.18;;;2.70;;
75356;SDS011;63946;51.986;5.930;2023-07-13T11:39:24;4.65;;;1.73;;
75356;SDS011;63946;51.986;5.930;2023-07-13T11:41:51;3.28;;;2.20;;
75356;SDS011;63946;51.986;5.930;2023-07-13T11:44:23;3.33;;;2.10;;
75356;SDS011;63946;51.986;5.930;2023-07-13T11:46:54;4.18;;;2.15;;
75356;SDS011;63946;51.986;5.930;2023-07-13T11:49:26;9.07;;;2.70;;
75356;SDS011;63946;51.986;5.930;2023-07-13T11:51:58;4.53;;;2.40;;
75356;SDS011;63946;51.986;5.930;2023-07-13T11:57:03;4.25;;;2.33;;
75356;SDS011;63946;51.986;5.930;2023-07-13T11:59:45;5.75;;;3.00;;
75356;SDS011;63946;51.986;5.930;2023-07-13T12:02:15;4.20;;;2.38;;
75356;SDS011;63946;51.986;5.930;2023-07-13T12:05:12;4.70;;;2.70;;
75356;SDS011;63946;51.986;5.930;2023-07-13T12:07:43;4.60;;;2.53;;
75356;SDS011;63946;51.986;5.930;2023-07-13T12:10:23;4.72;;;2.90;;
75356;SDS011;63946;51.986;5.930;2023-07-13T12:13:02;8.98;;;3.63;;
75356;SDS011;63946;51.986;5.930;2023-07-13T12:15:41;4.40;;;2.90;;
75356;SDS011;63946;51.986;5.930;2023-07-13T12:18:21;5.22;;;2.80;;
75356;SDS011;63946;51.986;5.930;2023-07-13T12:20:51;5.15;;;3.22;;
75356;SDS011;63946;51.986;5.930;2023-07-13T12:23:27;4.30;;;2.60;;
75356;SDS011;63946;51.986;5.930;2023-07-13T12:26:00;3.25;;;2.28;;
75356;SDS011;63946;51.986;5.930;2023-07-13T12:28:35;3.70;;;2.30;;
75356;SDS011;63946;51.986;5.930;2023-07-13T12:31:07;4.05;;;2.40;;
75356;SDS011;63946;51.986;5.930;2023-07-13T12:33:56;6.93;;;2.75;;
75356;SDS011;63946;51.986;5.930;2023-07-13T12:36:30;4.40;;;3.13;;
75356;SDS011;63946;51.986;5.930;2023-07-13T12:39:12;6.07;;;2.83;;
75356;SDS011;63946;51.986;5.930;2023-07-13T12:41:44;4.38;;;2.95;;
75356;SDS011;63946;51.986;5.930;2023-07-13T12:44:15;3.83;;;3.05;;
75356;SDS011;63946;51.986;5.930;2023-07-13T12:46:58;5.53;;;2.58;;
75356;SDS011;63946;51.986;5.930;2023-07-13T12:49:40;4.90;;;2.72;;
75356;SDS011;63946;51.986;5.930;2023-07-13T12:52:19;5.55;;;3.00;;
75356;SDS011;63946;51.986;5.930;2023-07-13T12:54:58;7.90;;;2.28;;
75356;SDS011;63946;51.986;5.930;2023-07-13T12:57:39;4.60;;;2.33;;
75356;SDS011;63946;51.986;5.930;2023-07-13T13:00:19;4.50;;;2.38;;
75356;SDS011;63946;51.986;5.930;2023-07-13T13:03:02;5.13;;;2.40;;
75356;SDS011;63946;51.986;5.930;2023-07-13T13:05:34;4.50;;;2.30;;
75356;SDS011;63946;51.986;5.930;2023-07-13T13:08:03;4.05;;;2.53;;
75356;SDS011;63946;51.986;5.930;2023-07-13T13:10:32;4.88;;;2.40;;
75356;SDS011;63946;51.986;5.930;2023-07-13T13:13:01;2.95;;;2.30;;
75356;SDS011;63946;51.986;5.930;2023-07-13T13:15:30;3.85;;;2.38;;
75356;SDS011;63946;51.986;5.930;2023-07-13T13:17:59;4.32;;;2.50;;
75356;SDS011;63946;51.986;5.930;2023-07-13T13:20:31;5.57;;;3.13;;
75356;SDS011;63946;51.986;5.930;2023-07-13T13:23:00;4.22;;;1.95;;
75356;SDS011;63946;51.986;5.930;2023-07-13T13:25:28;4.55;;;2.75;;
75356;SDS011;63946;51.986;5.930;2023-07-13T13:27:57;4.70;;;2.40;;
75356;SDS011;63946;51.986;5.930;2023-07-13T13:30:27;4.70;;;2.38;;
75356;SDS011;63946;51.986;5.930;2023-07-13T13:32:55;5.00;;;2.65;;
75356;SDS011;63946;51.986;5.930;2023-07-13T13:35:24;4.95;;;2.15;;
75356;SDS011;63946;51.986;5.930;2023-07-13T13:37:53;7.60;;;3.20;;
75356;SDS011;63946;51.986;5.930;2023-07-13T13:40:22;6.35;;;2.70;;
75356;SDS011;63946;51.986;5.930;2023-07-13T13:42:53;9.77;;;3.65;;
75356;SDS011;63946;51.986;5.930;2023-07-13T13:45:24;9.30;;;3.55;;
75356;SDS011;63946;51.986;5.930;2023-07-13T13:47:52;4.93;;;2.95;;
75356;SDS011;63946;51.986;5.930;2023-07-13T13:50:23;3.72;;;2.65;;
75356;SDS011;63946;51.986;5.930;2023-07-13T13:52:52;4.72;;;2.85;;
75356;SDS011;63946;51.986;5.930;2023-07-13T13:55:21;4.75;;;2.70;;
75356;SDS011;63946;51.986;5.930;2023-07-13T13:57:51;5.40;;;2.42;;
75356;SDS011;63946;51.986;5.930;2023-07-13T14:00:20;5.03;;;2.33;;
75356;SDS011;63946;51.986;5.930;2023-07-13T14:05:22;2.72;;;2.10;;
75356;SDS011;63946;51.986;5.930;2023-07-13T14:07:53;2.85;;;2.45;;
75356;SDS011;63946;51.986;5.930;2023-07-13T14:10:22;3.08;;;2.28;;
75356;SDS011;63946;51.986;5.930;2023-07-13T14:12:52;4.13;;;2.53;;
75356;SDS011;63946;51.986;5.930;2023-07-13T14:15:27;3.50;;;2.10;;
75356;SDS011;63946;51.986;5.930;2023-07-13T14:17:59;4.68;;;2.40;;
75356;SDS011;63946;51.986;5.930;2023-07-13T14:20:28;3.53;;;2.08;;
75356;SDS011;63946;51.986;5.930;2023-07-13T14:22:57;4.25;;;2.42;;
75356;SDS011;63946;51.986;5.930;2023-07-13T14:25:26;5.53;;;2.60;;
75356;SDS011;63946;51.986;5.930;2023-07-13T14:27:57;4.63;;;2.55;;
75356;SDS011;63946;51.986;5.930;2023-07-13T14:30:33;3.40;;;2.15;;
75356;SDS011;63946;51.986;5.930;2023-07-13T14:33:04;5.07;;;2.38;;
75356;SDS011;63946;51.986;5.930;2023-07-13T14:35:36;4.63;;;1.92;;
75356;SDS011;63946;51.986;5.930;2023-07-13T14:38:08;4.07;;;2.65;;
75356;SDS011;63946;51.986;5.930;2023-07-13T14:40:41;3.25;;;2.45;;
75356;SDS011;63946;51.986;5.930;2023-07-13T14:43:13;4.78;;;2.35;;
75356;SDS011;63946;51.986;5.930;2023-07-13T14:45:44;3.78;;;2.03;;
75356;SDS011;63946;51.986;5.930;2023-07-13T14:48:19;4.65;;;2.25;;
75356;SDS011;63946;51.986;5.930;2023-07-13T14:50:58;3.50;;;2.15;;
75356;SDS011;63946;51.986;5.930;2023-07-13T14:53:28;4.13;;;1.88;;
75356;SDS011;63946;51.986;5.930;2023-07-13T14:55:56;3.92;;;1.70;;
75356;SDS011;63946;51.986;5.930;2023-07-13T14:58:25;3.92;;;2.08;;
75356;SDS011;63946;51.986;5.930;2023-07-13T15:00:54;3.28;;;2.05;;
75356;SDS011;63946;51.986;5.930;2023-07-13T15:03:24;3.70;;;2.03;;
75356;SDS011;63946;51.986;5.930;2023-07-13T15:05:53;3.50;;;2.28;;
75356;SDS011;63946;51.986;5.930;2023-07-13T15:08:22;5.47;;;2.15;;
75356;SDS011;63946;51.986;5.930;2023-07-13T15:10:52;3.63;;;2.17;;
75356;SDS011;63946;51.986;5.930;2023-07-13T15:13:23;2.50;;;2.25;;
75356;SDS011;63946;51.986;5.930;2023-07-13T15:15:52;2.72;;;2.38;;
75356;SDS011;63946;51.986;5.930;2023-07-13T15:18:22;2.75;;;2.33;;
75356;SDS011;63946;51.986;5.930;2023-07-13T15:20:55;3.72;;;2.67;;
75356;SDS011;63946;51.986;5.930;2023-07-13T15:23:28;3.22;;;2.20;;
75356;SDS011;63946;51.986;5.930;2023-07-13T15:25:58;4.03;;;2.05;;
75356;SDS011;63946;51.986;5.930;2023-07-13T15:28:27;3.22;;;2.03;;
75356;SDS011;63946;51.986;5.930;2023-07-13T15:30:55;3.08;;;1.95;;
75356;SDS011;63946;51.986;5.930;2023-07-13T15:35:57;2.55;;;1.90;;
75356;SDS011;63946;51.986;5.930;2023-07-13T15:38:30;4.15;;;1.95;;
75356;SDS011;63946;51.986;5.930;2023-07-13T15:40:59;4.28;;;2.35;;
75356;SDS011;63946;51.986;5.930;2023-07-13T15:43:31;3.75;;;2.20;;
75356;SDS011;63946;51.986;5.930;2023-07-13T15:46:00;5.13;;;2.35;;
75356;SDS011;63946;51.986;5.930;2023-07-13T15:48:29;3.22;;;2.45;;
75356;SDS011;63946;51.986;5.930;2023-07-13T15:51:00;3.08;;;2.30;;
75356;SDS011;63946;51.986;5.930;2023-07-13T15:53:31;3.72;;;1.75;;
75356;SDS011;63946;51.986;5.930;2023-07-13T15:56:04;3.92;;;2.22;;
75356;SDS011;63946;51.986;5.930;2023-07-13T15:58:48;5.45;;;2.40;;
75356;SDS011;63946;51.986;5.930;2023-07-13T16:01:18;3.15;;;2.10;;
75356;SDS011;63946;51.986;5.930;2023-07-13T16:03:47;3.10;;;1.95;;
75356;SDS011;63946;51.986;5.930;2023-07-13T16:08:53;3.72;;;1.83;;
75356;SDS011;63946;51.986;5.930;2023-07-13T16:11:23;3.97;;;2.00;;
75356;SDS011;63946;51.986;5.930;2023-07-13T16:13:54;3.55;;;2.42;;
75356;SDS011;63946;51.986;5.930;2023-07-13T16:16:25;2.55;;;1.92;;
75356;SDS011;63946;51.986;5.930;2023-07-13T16:18:56;1.85;;;1.65;;
75356;SDS011;63946;51.986;5.930;2023-07-13T16:21:28;3.55;;;2.00;;
75356;SDS011;63946;51.986;5.930;2023-07-13T16:24:00;2.42;;;1.50;;
75356;SDS011;63946;51.986;5.930;2023-07-13T16:26:32;2.30;;;1.70;;
75356;SDS011;63946;51.986;5.930;2023-07-13T16:29:47;2.75;;;1.85;;
75356;SDS011;63946;51.986;5.930;2023-07-13T16:34:47;3.67;;;2.20;;
75356;SDS011;63946;51.986;5.930;2023-07-13T16:37:17;3.05;;;1.77;;
75356;SDS011;63946;51.986;5.930;2023-07-13T16:39:53;4.90;;;2.40;;
75356;SDS011;63946;51.986;5.930;2023-07-13T16:42:26;4.88;;;1.90;;
75356;SDS011;63946;51.986;5.930;2023-07-13T16:44:55;3.03;;;1.98;;
75356;SDS011;63946;51.986;5.930;2023-07-13T16:47:24;3.83;;;2.75;;
75356;SDS011;63946;51.986;5.930;2023-07-13T16:49:53;4.32;;;2.33;;
75356;SDS011;63946;51.986;5.930;2023-07-13T16:52:24;2.92;;;2.40;;
75356;SDS011;63946;51.986;5.930;2023-07-13T16:54:53;4.32;;;2.30;;
75356;SDS011;63946;51.986;5.930;2023-07-13T16:57:23;4.38;;;2.20;;
75356;SDS011;63946;51.986;5.930;2023-07-13T17:05:00;3.33;;;2.33;;
75356;SDS011;63946;51.986;5.930;2023-07-13T17:07:31;4.10;;;1.88;;
75356;SDS011;63946;51.986;5.930;2023-07-13T17:10:01;5.57;;;2.38;;
75356;SDS011;63946;51.986;5.930;2023-07-13T17:12:30;3.75;;;2.13;;
75356;SDS011;63946;51.986;5.930;2023-07-13T17:15:00;2.17;;;1.55;;
75356;SDS011;63946;51.986;5.930;2023-07-13T17:17:37;3.97;;;1.73;;
75356;SDS011;63946;51.986;5.930;2023-07-13T17:20:14;6.00;;;2.90;;
75356;SDS011;63946;51.986;5.930;2023-07-13T17:22:47;4.68;;;2.28;;
75356;SDS011;63946;51.986;5.930;2023-07-13T17:25:17;3.28;;;2.30;;
75356;SDS011;63946;51.986;5.930;2023-07-13T17:27:48;5.13;;;2.22;;
75356;SDS011;63946;51.986;5.930;2023-07-13T17:30:19;3.85;;;2.03;;
75356;SDS011;63946;51.986;5.930;2023-07-13T17:32:50;4.90;;;2.85;;
75356;SDS011;63946;51.986;5.930;2023-07-13T17:35:27;3.95;;;2.15;;
75356;SDS011;63946;51.986;5.930;2023-07-13T17:37:59;4.70;;;2.78;;
75356;SDS011;63946;51.986;5.930;2023-07-13T17:40:30;4.03;;;2.03;;
75356;SDS011;63946;51.986;5.930;2023-07-13T17:42:59;8.18;;;3.33;;
75356;SDS011;63946;51.986;5.930;2023-07-13T17:45:29;3.45;;;2.05;;
75356;SDS011;63946;51.986;5.930;2023-07-13T17:47:59;3.55;;;1.80;;
75356;SDS011;63946;51.986;5.930;2023-07-13T17:50:32;5.57;;;3.70;;
75356;SDS011;63946;51.986;5.930;2023-07-13T17:53:14;5.07;;;3.92;;
75356;SDS011;63946;51.986;5.930;2023-07-13T17:55:49;5.25;;;2.90;;
75356;SDS011;63946;51.986;5.930;2023-07-13T17:58:19;4.03;;;2.78;;
75356;SDS011;63946;51.986;5.930;2023-07-13T18:00:50;3.10;;;2.30;;
75356;SDS011;63946;51.986;5.930;2023-07-13T18:03:25;3.70;;;1.92;;
75356;SDS011;63946;51.986;5.930;2023-07-13T18:05:58;2.72;;;1.80;;
75356;SDS011;63946;51.986;5.930;2023-07-13T18:08:30;2.90;;;1.90;;
75356;SDS011;63946;51.986;5.930;2023-07-13T18:11:01;4.35;;;3.45;;
75356;SDS011;63946;51.986;5.930;2023-07-13T18:13:30;3.33;;;2.22;;
75356;SDS011;63946;51.986;5.930;2023-07-13T18:16:11;5.22;;;2.50;;
75356;SDS011;63946;51.986;5.930;2023-07-13T18:18:44;3.05;;;2.75;;
75356;SDS011;63946;51.986;5.930;2023-07-13T18:21:13;4.05;;;2.88;;
75356;SDS011;63946;51.986;5.930;2023-07-13T18:23:47;4.90;;;2.50;;
75356;SDS011;63946;51.986;5.930;2023-07-13T18:26:17;4.47;;;1.98;;
75356;SDS011;63946;51.986;5.930;2023-07-13T18:28:56;3.47;;;1.60;;
75356;SDS011;63946;51.986;5.930;2023-07-13T18:31:25;3.25;;;2.13;;
75356;SDS011;63946;51.986;5.930;2023-07-13T18:34:01;3.25;;;1.75;;
75356;SDS011;63946;51.986;5.930;2023-07-13T18:36:30;4.00;;;2.95;;
75356;SDS011;63946;51.986;5.930;2023-07-13T18:38:59;5.75;;;3.28;;
75356;SDS011;63946;51.986;5.930;2023-07-13T18:41:31;5.03;;;2.28;;
75356;SDS011;63946;51.986;5.930;2023-07-13T18:44:00;3.80;;;2.63;;
75356;SDS011;63946;51.986;5.930;2023-07-13T18:46:29;4.90;;;2.15;;
75356;SDS011;63946;51.986;5.930;2023-07-13T18:49:01;3.65;;;2.53;;
75356;SDS011;63946;51.986;5.930;2023-07-13T18:51:30;3.95;;;2.10;;
75356;SDS011;63946;51.986;5.930;2023-07-13T18:53:59;4.43;;;2.10;;
75356;SDS011;63946;51.986;5.930;2023-07-13T18:56:28;2.92;;;1.95;;
75356;SDS011;63946;51.986;5.930;2023-07-13T18:58:57;2.72;;;1.60;;
75356;SDS011;63946;51.986;5.930;2023-07-13T19:01:30;3.83;;;2.00;;
75356;SDS011;63946;51.986;5.930;2023-07-13T19:04:05;3.85;;;2.42;;
75356;SDS011;63946;51.986;5.930;2023-07-13T19:06:56;4.35;;;2.10;;
75356;SDS011;63946;51.986;5.930;2023-07-13T19:09:26;2.55;;;1.85;;
75356;SDS011;63946;51.986;5.930;2023-07-13T19:11:55;6.07;;;2.65;;
75356;SDS011;63946;51.986;5.930;2023-07-13T19:14:24;4.53;;;2.83;;
75356;SDS011;63946;51.986;5.930;2023-07-13T19:16:53;3.45;;;2.20;;
75356;SDS011;63946;51.986;5.930;2023-07-13T19:19:23;5.97;;;2.78;;
75356;SDS011;63946;51.986;5.930;2023-07-13T19:21:52;2.47;;;1.90;;
75356;SDS011;63946;51.986;5.930;2023-07-13T19:24:24;3.70;;;1.98;;
75356;SDS011;63946;51.986;5.930;2023-07-13T19:26:54;3.08;;;2.03;;
75356;SDS011;63946;51.986;5.930;2023-07-13T19:29:24;4.32;;;2.22;;
75356;SDS011;63946;51.986;5.930;2023-07-13T19:31:56;2.72;;;1.80;;
75356;SDS011;63946;51.986;5.930;2023-07-13T19:34:25;4.70;;;2.40;;
75356;SDS011;63946;51.986;5.930;2023-07-13T19:39:32;3.45;;;1.73;;
75356;SDS011;63946;51.986;5.930;2023-07-13T19:42:26;2.72;;;2.28;;
75356;SDS011;63946;51.986;5.930;2023-07-13T19:44:56;2.70;;;1.80;;
75356;SDS011;63946;51.986;5.930;2023-07-13T19:47:26;4.15;;;2.38;;
75356;SDS011;63946;51.986;5.930;2023-07-13T19:49:55;3.55;;;2.13;;
75356;SDS011;63946;51.986;5.930;2023-07-13T19:52:26;3.65;;;2.00;;
75356;SDS011;63946;51.986;5.930;2023-07-13T19:54:56;3.45;;;2.13;;
75356;SDS011;63946;51.986;5.930;2023-07-13T19:57:28;5.13;;;2.03;;
75356;SDS011;63946;51.986;5.930;2023-07-13T19:59:57;2.95;;;1.83;;